Check out our new PWSWeather beta!
PWSweather.com
Personal Weather Stations
Station Observations
KOHAVON11
Long Road Station, Avon, OH 44011

Long Road StationAvon, OH 44011

Lat: 41.437, Lon: -82.0477

Elevation: 686

Station Type: Davis Vantage Pro2

http://www.avon-weather.com

High Low Average
Temperature 54.9°F12.7°C 36.4°F2.4°C 42.9°F6.1°C
Dew Point 46.5°F8.1°C 29.0°F-1.7°C 36.5°F2.5°C
Winds 15.0 mph 24.1 kmh Calm Calm 5.0 mph S8.0 kmh S
Wind Gusts 23.0 mph37.0 kmh 5.0 mph8.0 kmh 12.0 mph19.3 kmh
Humidity 89% 55% 79%
Pressure 29.71 in1006.1 mb 29.32 in992.9 mb -
Precipitation 0.00 in0.0 mm - -
Hour Temp Dew Point Humidity Winds Wind Gusts Pressure Precip Precip Rate Daily Precip Total
12:04 AM 41.3°F5.2°C 29.0°F-1.7°C 62% 6.0 mph E9.7 kmh E 9.0 mph14.5 kmh 29.71 in1006.1 mb 0.00 in0.0 mm 0.00 in0.0 mm 0.00 in0.0 mm
12:09 AM 41.2°F5.1°C 29.4°F-1.4°C 63% 7.0 mph E11.3 kmh E 8.0 mph12.9 kmh 29.70 in1005.8 mb 0.00 in0.0 mm 0.00 in0.0 mm 0.00 in0.0 mm
12:14 AM 41.1°F5.1°C 29.7°F-1.3°C 64% 6.0 mph E9.7 kmh E 9.0 mph14.5 kmh 29.69 in1005.4 mb 0.00 in0.0 mm 0.00 in0.0 mm 0.00 in0.0 mm
12:19 AM 41.0°F5.0°C 29.6°F-1.3°C 64% 8.0 mph E12.9 kmh E 14.0 mph22.5 kmh 29.68 in1005.1 mb 0.00 in0.0 mm 0.00 in0.0 mm 0.00 in0.0 mm
12:24 AM 40.9°F4.9°C 29.9°F-1.2°C 65% 4.0 mph ESE6.4 kmh ESE 14.0 mph22.5 kmh 29.68 in1005.1 mb 0.00 in0.0 mm 0.00 in0.0 mm 0.00 in0.0 mm
12:29 AM 40.8°F4.9°C 30.1°F-1.1°C 66% 7.0 mph E11.3 kmh E 14.0 mph22.5 kmh 29.68 in1005.1 mb 0.00 in0.0 mm 0.00 in0.0 mm 0.00 in0.0 mm
12:34 AM 40.6°F4.8°C 30.3°F-0.9°C 67% 10.0 mph E16.1 kmh E 14.0 mph22.5 kmh 29.67 in1004.7 mb 0.00 in0.0 mm 0.00 in0.0 mm 0.00 in0.0 mm
12:39 AM 40.4°F4.7°C 30.5°F-0.8°C 68% 8.0 mph E12.9 kmh E 13.0 mph20.9 kmh 29.67 in1004.7 mb 0.00 in0.0 mm 0.00 in0.0 mm 0.00 in0.0 mm
12:44 AM 40.3°F4.6°C 30.8°F-0.7°C 69% 10.0 mph E16.1 kmh E 13.0 mph20.9 kmh 29.67 in1004.7 mb 0.00 in0.0 mm 0.00 in0.0 mm 0.00 in0.0 mm
12:49 AM 40.1°F4.5°C 30.6°F-0.8°C 69% 5.0 mph E8.0 kmh E 13.0 mph20.9 kmh 29.66 in1004.4 mb 0.00 in0.0 mm 0.00 in0.0 mm 0.00 in0.0 mm
12:54 AM 40.1°F4.5°C 31.0°F-0.6°C 70% 9.0 mph E14.5 kmh E 13.0 mph20.9 kmh 29.66 in1004.4 mb 0.00 in0.0 mm 0.00 in0.0 mm 0.00 in0.0 mm
12:59 AM 40.0°F4.4°C 30.9°F-0.6°C 70% 9.0 mph E14.5 kmh E 17.0 mph27.4 kmh 29.65 in1004.1 mb 0.00 in0.0 mm 0.00 in0.0 mm 0.00 in0.0 mm
01:04 AM 40.0°F4.4°C 30.9°F-0.6°C 70% 6.0 mph E9.7 kmh E 17.0 mph27.4 kmh 29.64 in1003.7 mb 0.00 in0.0 mm 0.00 in0.0 mm 0.00 in0.0 mm
01:09 AM 40.0°F4.4°C 30.9°F-0.6°C 70% 8.0 mph E12.9 kmh E 17.0 mph27.4 kmh 29.64 in1003.7 mb 0.00 in0.0 mm 0.00 in0.0 mm 0.00 in0.0 mm
01:14 AM 40.0°F4.4°C 31.2°F-0.4°C 71% 10.0 mph E16.1 kmh E 17.0 mph27.4 kmh 29.63 in1003.4 mb 0.00 in0.0 mm 0.00 in0.0 mm 0.00 in0.0 mm
01:19 AM 39.9°F4.4°C 31.1°F-0.5°C 71% 8.0 mph E12.9 kmh E 14.0 mph22.5 kmh 29.63 in1003.4 mb 0.00 in0.0 mm 0.00 in0.0 mm 0.00 in0.0 mm
01:24 AM 39.9°F4.4°C 30.8°F-0.7°C 70% 5.0 mph SE8.0 kmh SE 14.0 mph22.5 kmh 29.63 in1003.4 mb 0.00 in0.0 mm 0.00 in0.0 mm 0.00 in0.0 mm
01:29 AM 40.0°F4.4°C 30.9°F-0.6°C 70% 10.0 mph ESE16.1 kmh ESE 15.0 mph24.1 kmh 29.62 in1003.0 mb 0.00 in0.0 mm 0.00 in0.0 mm 0.00 in0.0 mm
01:34 AM 40.0°F4.4°C 30.9°F-0.6°C 70% 13.0 mph ESE20.9 kmh ESE 15.0 mph24.1 kmh 29.62 in1003.0 mb 0.00 in0.0 mm 0.00 in0.0 mm 0.00 in0.0 mm
01:39 AM 40.1°F4.5°C 30.6°F-0.8°C 69% 7.0 mph E11.3 kmh E 15.0 mph24.1 kmh 29.61 in1002.7 mb 0.00 in0.0 mm 0.00 in0.0 mm 0.00 in0.0 mm
01:44 AM 40.1°F4.5°C 30.6°F-0.8°C 69% 7.0 mph E11.3 kmh E 15.0 mph24.1 kmh 29.61 in1002.7 mb 0.00 in0.0 mm 0.00 in0.0 mm 0.00 in0.0 mm
01:49 AM 40.2°F4.6°C 30.7°F-0.7°C 69% 7.0 mph ESE11.3 kmh ESE 13.0 mph20.9 kmh 29.60 in1002.4 mb 0.00 in0.0 mm 0.00 in0.0 mm 0.00 in0.0 mm
01:54 AM 40.2°F4.6°C 30.7°F-0.7°C 69% 6.0 mph E9.7 kmh E 13.0 mph20.9 kmh 29.59 in1002.0 mb 0.00 in0.0 mm 0.00 in0.0 mm 0.00 in0.0 mm
01:59 AM 40.3°F4.6°C 30.8°F-0.7°C 69% 10.0 mph ESE16.1 kmh ESE 14.0 mph22.5 kmh 29.59 in1002.0 mb 0.00 in0.0 mm 0.00 in0.0 mm 0.00 in0.0 mm
02:04 AM 40.3°F4.6°C 30.8°F-0.7°C 69% 5.0 mph SE8.0 kmh SE 15.0 mph24.1 kmh 29.58 in1001.7 mb 0.00 in0.0 mm 0.00 in0.0 mm 0.00 in0.0 mm
02:09 AM 40.4°F4.7°C 30.9°F-0.6°C 69% 7.0 mph E11.3 kmh E 15.0 mph24.1 kmh 29.58 in1001.7 mb 0.00 in0.0 mm 0.00 in0.0 mm 0.00 in0.0 mm
02:14 AM 40.4°F4.7°C 30.9°F-0.6°C 69% 6.0 mph E9.7 kmh E 15.0 mph24.1 kmh 29.57 in1001.4 mb 0.00 in0.0 mm 0.00 in0.0 mm 0.00 in0.0 mm
02:19 AM 40.4°F4.7°C 31.3°F-0.4°C 70% 3.0 mph ESE4.8 kmh ESE 15.0 mph24.1 kmh 29.57 in1001.4 mb 0.00 in0.0 mm 0.00 in0.0 mm 0.00 in0.0 mm
02:24 AM 40.4°F4.7°C 31.3°F-0.4°C 70% 10.0 mph E16.1 kmh E 13.0 mph20.9 kmh 29.56 in1001.0 mb 0.00 in0.0 mm 0.00 in0.0 mm 0.00 in0.0 mm
02:29 AM 40.5°F4.7°C 31.4°F-0.3°C 70% 7.0 mph E11.3 kmh E 13.0 mph20.9 kmh 29.55 in1000.7 mb 0.00 in0.0 mm 0.00 in0.0 mm 0.00 in0.0 mm
02:34 AM 40.5°F4.7°C 31.4°F-0.3°C 70% 15.0 mph E24.1 kmh E 16.0 mph25.7 kmh 29.54 in1000.3 mb 0.00 in0.0 mm 0.00 in0.0 mm 0.00 in0.0 mm
02:39 AM 40.6°F4.8°C 31.8°F-0.1°C 71% 10.0 mph ENE16.1 kmh ENE 18.0 mph29.0 kmh 29.53 in1000.0 mb 0.00 in0.0 mm 0.00 in0.0 mm 0.00 in0.0 mm
02:44 AM 40.6°F4.8°C 31.8°F-0.1°C 71% 10.0 mph E16.1 kmh E 18.0 mph29.0 kmh 29.52 in999.7 mb 0.00 in0.0 mm 0.00 in0.0 mm 0.00 in0.0 mm
02:49 AM 40.6°F4.8°C 32.2°F0.1°C 72% 8.0 mph SE12.9 kmh SE 18.0 mph29.0 kmh 29.52 in999.7 mb 0.00 in0.0 mm 0.00 in0.0 mm 0.00 in0.0 mm
02:54 AM 40.7°F4.8°C 32.3°F0.2°C 72% 6.0 mph E9.7 kmh E 18.0 mph29.0 kmh 29.53 in1000.0 mb 0.00 in0.0 mm 0.00 in0.0 mm 0.00 in0.0 mm
02:59 AM 40.7°F4.8°C 32.3°F0.2°C 72% 7.0 mph ESE11.3 kmh ESE 10.0 mph16.1 kmh 29.53 in1000.0 mb 0.00 in0.0 mm 0.00 in0.0 mm 0.00 in0.0 mm
03:04 AM 40.8°F4.9°C 32.4°F0.2°C 72% 6.0 mph E9.7 kmh E 10.0 mph16.1 kmh 29.52 in999.7 mb 0.00 in0.0 mm 0.00 in0.0 mm 0.00 in0.0 mm
03:09 AM 40.9°F4.9°C 32.8°F0.4°C 73% 12.0 mph SE19.3 kmh SE 14.0 mph22.5 kmh 29.51 in999.3 mb 0.00 in0.0 mm 0.00 in0.0 mm 0.00 in0.0 mm
03:14 AM 40.9°F4.9°C 32.8°F0.4°C 73% 12.0 mph ENE19.3 kmh ENE 14.0 mph22.5 kmh 29.51 in999.3 mb 0.00 in0.0 mm 0.00 in0.0 mm 0.00 in0.0 mm
03:19 AM 40.9°F4.9°C 32.8°F0.4°C 73% 7.0 mph E11.3 kmh E 17.0 mph27.4 kmh 29.51 in999.3 mb 0.00 in0.0 mm 0.00 in0.0 mm 0.00 in0.0 mm
03:24 AM 40.9°F4.9°C 32.8°F0.4°C 73% 7.0 mph ESE11.3 kmh ESE 17.0 mph27.4 kmh 29.50 in999.0 mb 0.00 in0.0 mm 0.00 in0.0 mm 0.00 in0.0 mm
03:29 AM 40.9°F4.9°C 32.8°F0.4°C 73% 7.0 mph SE11.3 kmh SE 17.0 mph27.4 kmh 29.49 in998.6 mb 0.00 in0.0 mm 0.00 in0.0 mm 0.00 in0.0 mm
03:34 AM 40.8°F4.9°C 32.7°F0.4°C 73% 12.0 mph SE19.3 kmh SE 17.0 mph27.4 kmh 29.49 in998.6 mb 0.00 in0.0 mm 0.00 in0.0 mm 0.00 in0.0 mm
03:39 AM 40.8°F4.9°C 33.1°F0.6°C 74% 7.0 mph SE11.3 kmh SE 14.0 mph22.5 kmh 29.49 in998.6 mb 0.00 in0.0 mm 0.00 in0.0 mm 0.00 in0.0 mm
03:44 AM 40.8°F4.9°C 33.1°F0.6°C 74% 10.0 mph E16.1 kmh E 16.0 mph25.7 kmh 29.48 in998.3 mb 0.00 in0.0 mm 0.00 in0.0 mm 0.00 in0.0 mm
03:49 AM 40.8°F4.9°C 33.4°F0.8°C 75% 3.0 mph SSW4.8 kmh SSW 16.0 mph25.7 kmh 29.49 in998.6 mb 0.00 in0.0 mm 0.00 in0.0 mm 0.00 in0.0 mm
03:54 AM 40.7°F4.8°C 33.6°F0.9°C 76% 8.0 mph SE12.9 kmh SE 16.0 mph25.7 kmh 29.48 in998.3 mb 0.00 in0.0 mm 0.00 in0.0 mm 0.00 in0.0 mm
03:59 AM 40.6°F4.8°C 34.2°F1.2°C 78% 4.0 mph ESE6.4 kmh ESE 16.0 mph25.7 kmh 29.48 in998.3 mb 0.00 in0.0 mm 0.00 in0.0 mm 0.00 in0.0 mm
04:04 AM 40.4°F4.7°C 34.4°F1.3°C 79% 13.0 mph E20.9 kmh E 15.0 mph24.1 kmh 29.46 in997.6 mb 0.00 in0.0 mm 0.00 in0.0 mm 0.00 in0.0 mm
04:09 AM 40.2°F4.6°C 34.5°F1.4°C 80% 8.0 mph E12.9 kmh E 15.0 mph24.1 kmh 29.46 in997.6 mb 0.00 in0.0 mm 0.00 in0.0 mm 0.00 in0.0 mm
04:14 AM 40.0°F4.4°C 34.6°F1.4°C 81% 7.0 mph E11.3 kmh E 14.0 mph22.5 kmh 29.44 in997.0 mb 0.00 in0.0 mm 0.00 in0.0 mm 0.00 in0.0 mm
04:19 AM 39.8°F4.3°C 34.7°F1.5°C 82% 9.0 mph SE14.5 kmh SE 23.0 mph37.0 kmh 29.45 in997.3 mb 0.00 in0.0 mm 0.00 in0.0 mm 0.00 in0.0 mm
04:24 AM 39.6°F4.2°C 34.8°F1.6°C 83% 9.0 mph SE14.5 kmh SE 23.0 mph37.0 kmh 29.44 in997.0 mb 0.00 in0.0 mm 0.00 in0.0 mm 0.00 in0.0 mm
04:29 AM 39.5°F4.2°C 34.7°F1.5°C 83% 5.0 mph ESE8.0 kmh ESE 23.0 mph37.0 kmh 29.43 in996.6 mb 0.00 in0.0 mm 0.00 in0.0 mm 0.00 in0.0 mm
04:34 AM 39.4°F4.1°C 35.0°F1.7°C 84% 6.0 mph SE9.7 kmh SE 23.0 mph37.0 kmh 29.43 in996.6 mb 0.00 in0.0 mm 0.00 in0.0 mm 0.00 in0.0 mm
04:39 AM 39.4°F4.1°C 35.0°F1.7°C 84% 10.0 mph ESE16.1 kmh ESE 17.0 mph27.4 kmh 29.42 in996.3 mb 0.00 in0.0 mm 0.00 in0.0 mm 0.00 in0.0 mm
04:44 AM 39.3°F4.1°C 34.9°F1.6°C 84% 12.0 mph E19.3 kmh E 17.0 mph27.4 kmh 29.41 in995.9 mb 0.00 in0.0 mm 0.00 in0.0 mm 0.00 in0.0 mm
04:49 AM 39.3°F4.1°C 35.2°F1.8°C 85% 10.0 mph ESE16.1 kmh ESE 17.0 mph27.4 kmh 29.41 in995.9 mb 0.00 in0.0 mm 0.00 in0.0 mm 0.00 in0.0 mm
04:54 AM 39.2°F4.0°C 35.1°F1.7°C 85% 6.0 mph SE9.7 kmh SE 17.0 mph27.4 kmh 29.41 in995.9 mb 0.00 in0.0 mm 0.00 in0.0 mm 0.00 in0.0 mm
04:59 AM 39.2°F4.0°C 35.1°F1.7°C 85% 4.0 mph SE6.4 kmh SE 17.0 mph27.4 kmh 29.43 in996.6 mb 0.00 in0.0 mm 0.00 in0.0 mm 0.00 in0.0 mm
05:04 AM 39.2°F4.0°C 35.4°F1.9°C 86% 5.0 mph E8.0 kmh E 17.0 mph27.4 kmh 29.41 in995.9 mb 0.00 in0.0 mm 0.00 in0.0 mm 0.00 in0.0 mm
05:09 AM 39.3°F4.1°C 35.5°F1.9°C 86% 11.0 mph E17.7 kmh E 17.0 mph27.4 kmh 29.41 in995.9 mb 0.00 in0.0 mm 0.00 in0.0 mm 0.00 in0.0 mm
05:14 AM 39.2°F4.0°C 35.4°F1.9°C 86% 12.0 mph SE19.3 kmh SE 17.0 mph27.4 kmh 29.40 in995.6 mb 0.00 in0.0 mm 0.00 in0.0 mm 0.00 in0.0 mm
05:19 AM 39.3°F4.1°C 35.5°F1.9°C 86% 10.0 mph E16.1 kmh E 16.0 mph25.7 kmh 29.40 in995.6 mb 0.00 in0.0 mm 0.00 in0.0 mm 0.00 in0.0 mm
05:24 AM 39.3°F4.1°C 35.5°F1.9°C 86% 9.0 mph SE14.5 kmh SE 16.0 mph25.7 kmh 29.39 in995.3 mb 0.00 in0.0 mm 0.00 in0.0 mm 0.00 in0.0 mm
05:29 AM 39.3°F4.1°C 35.5°F1.9°C 86% 7.0 mph ESE11.3 kmh ESE 15.0 mph24.1 kmh 29.39 in995.3 mb 0.00 in0.0 mm 0.00 in0.0 mm 0.00 in0.0 mm
05:34 AM 39.4°F4.1°C 35.9°F2.2°C 87% 5.0 mph SE8.0 kmh SE 15.0 mph24.1 kmh 29.39 in995.3 mb 0.00 in0.0 mm 0.00 in0.0 mm 0.00 in0.0 mm
05:39 AM 39.4°F4.1°C 35.9°F2.2°C 87% 9.0 mph SE14.5 kmh SE 15.0 mph24.1 kmh 29.39 in995.3 mb 0.00 in0.0 mm 0.00 in0.0 mm 0.00 in0.0 mm
05:44 AM 39.4°F4.1°C 35.9°F2.2°C 87% 12.0 mph ESE19.3 kmh ESE 16.0 mph25.7 kmh 29.39 in995.3 mb 0.00 in0.0 mm 0.00 in0.0 mm 0.00 in0.0 mm
05:49 AM 39.5°F4.2°C 36.0°F2.2°C 87% 7.0 mph ESE11.3 kmh ESE 16.0 mph25.7 kmh 29.39 in995.3 mb 0.00 in0.0 mm 0.00 in0.0 mm 0.00 in0.0 mm
05:54 AM 39.5°F4.2°C 36.0°F2.2°C 87% 7.0 mph ESE11.3 kmh ESE 16.0 mph25.7 kmh 29.38 in994.9 mb 0.00 in0.0 mm 0.00 in0.0 mm 0.00 in0.0 mm
05:59 AM 39.6°F4.2°C 36.1°F2.3°C 87% 6.0 mph E9.7 kmh E 16.0 mph25.7 kmh 29.38 in994.9 mb 0.00 in0.0 mm 0.00 in0.0 mm 0.00 in0.0 mm
06:04 AM 39.7°F4.3°C 36.2°F2.3°C 87% 8.0 mph SSE12.9 kmh SSE 13.0 mph20.9 kmh 29.38 in994.9 mb 0.00 in0.0 mm 0.00 in0.0 mm 0.00 in0.0 mm
06:09 AM 39.8°F4.3°C 36.3°F2.4°C 87% 7.0 mph SE11.3 kmh SE 15.0 mph24.1 kmh 29.37 in994.6 mb 0.00 in0.0 mm 0.00 in0.0 mm 0.00 in0.0 mm
06:14 AM 39.8°F4.3°C 36.3°F2.4°C 87% 12.0 mph ESE19.3 kmh ESE 15.0 mph24.1 kmh 29.37 in994.6 mb 0.00 in0.0 mm 0.00 in0.0 mm 0.00 in0.0 mm
06:19 AM 39.9°F4.4°C 36.4°F2.4°C 87% 4.0 mph ESE6.4 kmh ESE 15.0 mph24.1 kmh 29.37 in994.6 mb 0.00 in0.0 mm 0.00 in0.0 mm 0.00 in0.0 mm
06:24 AM 39.9°F4.4°C 36.4°F2.4°C 87% 3.0 mph S4.8 kmh S 15.0 mph24.1 kmh 29.37 in994.6 mb 0.00 in0.0 mm 0.00 in0.0 mm 0.00 in0.0 mm
06:29 AM 40.1°F4.5°C 36.8°F2.7°C 88% 5.0 mph ESE8.0 kmh ESE 11.0 mph17.7 kmh 29.36 in994.2 mb 0.00 in0.0 mm 0.00 in0.0 mm 0.00 in0.0 mm
06:34 AM 40.1°F4.5°C 36.8°F2.7°C 88% 4.0 mph ESE6.4 kmh ESE 11.0 mph17.7 kmh 29.36 in994.2 mb 0.00 in0.0 mm 0.00 in0.0 mm 0.00 in0.0 mm
06:39 AM 40.3°F4.6°C 37.0°F2.8°C 88% 7.0 mph ESE11.3 kmh ESE 11.0 mph17.7 kmh 29.36 in994.2 mb 0.00 in0.0 mm 0.00 in0.0 mm 0.00 in0.0 mm
06:44 AM 40.4°F4.7°C 37.1°F2.8°C 88% 7.0 mph SE11.3 kmh SE 11.0 mph17.7 kmh 29.36 in994.2 mb 0.00 in0.0 mm 0.00 in0.0 mm 0.00 in0.0 mm
06:49 AM 40.5°F4.7°C 37.2°F2.9°C 88% 4.0 mph SE6.4 kmh SE 11.0 mph17.7 kmh 29.36 in994.2 mb 0.00 in0.0 mm 0.00 in0.0 mm 0.00 in0.0 mm
06:54 AM 40.6°F4.8°C 37.3°F2.9°C 88% 5.0 mph SE8.0 kmh SE 11.0 mph17.7 kmh 29.35 in993.9 mb 0.00 in0.0 mm 0.00 in0.0 mm 0.00 in0.0 mm
06:59 AM 40.8°F4.9°C 37.5°F3.1°C 88% 6.0 mph SE9.7 kmh SE 14.0 mph22.5 kmh 29.35 in993.9 mb 0.00 in0.0 mm 0.00 in0.0 mm 0.00 in0.0 mm
07:04 AM 40.9°F4.9°C 37.6°F3.1°C 88% 12.0 mph ESE19.3 kmh ESE 14.0 mph22.5 kmh 29.34 in993.6 mb 0.00 in0.0 mm 0.00 in0.0 mm 0.00 in0.0 mm
07:09 AM 41.1°F5.1°C 37.8°F3.2°C 88% 6.0 mph SE9.7 kmh SE 14.0 mph22.5 kmh 29.33 in993.2 mb 0.00 in0.0 mm 0.00 in0.0 mm 0.00 in0.0 mm
07:14 AM 41.2°F5.1°C 37.9°F3.3°C 88% 8.0 mph ESE12.9 kmh ESE 14.0 mph22.5 kmh 29.33 in993.2 mb 0.00 in0.0 mm 0.00 in0.0 mm 0.00 in0.0 mm
07:19 AM 41.4°F5.2°C 38.1°F3.4°C 88% 10.0 mph SE16.1 kmh SE 13.0 mph20.9 kmh 29.32 in992.9 mb 0.00 in0.0 mm 0.00 in0.0 mm 0.00 in0.0 mm
07:24 AM 41.5°F5.3°C 38.2°F3.4°C 88% 9.0 mph SE14.5 kmh SE 14.0 mph22.5 kmh 29.33 in993.2 mb 0.00 in0.0 mm 0.00 in0.0 mm 0.00 in0.0 mm
07:29 AM 41.7°F5.4°C 38.4°F3.6°C 88% 7.0 mph SE11.3 kmh SE 14.0 mph22.5 kmh 29.33 in993.2 mb 0.00 in0.0 mm 0.00 in0.0 mm 0.00 in0.0 mm
07:34 AM 41.8°F5.4°C 38.5°F3.6°C 88% 1.0 mph SE1.6 kmh SE 14.0 mph22.5 kmh 29.34 in993.6 mb 0.00 in0.0 mm 0.00 in0.0 mm 0.00 in0.0 mm
07:39 AM 42.0°F5.6°C 38.7°F3.7°C 88% 5.0 mph SE8.0 kmh SE 14.0 mph22.5 kmh 29.33 in993.2 mb 0.00 in0.0 mm 0.00 in0.0 mm 0.00 in0.0 mm
07:44 AM 42.2°F5.7°C 38.9°F3.8°C 88% 1.0 mph S1.6 kmh S 13.0 mph20.9 kmh 29.35 in993.9 mb 0.00 in0.0 mm 0.00 in0.0 mm 0.00 in0.0 mm
07:49 AM 42.4°F5.8°C 39.1°F3.9°C 88% 4.0 mph S6.4 kmh S 13.0 mph20.9 kmh 29.34 in993.6 mb 0.00 in0.0 mm 0.00 in0.0 mm 0.00 in0.0 mm
07:54 AM 42.6°F5.9°C 39.3°F4.1°C 88% 2.0 mph S3.2 kmh S 14.0 mph22.5 kmh 29.35 in993.9 mb 0.00 in0.0 mm 0.00 in0.0 mm 0.00 in0.0 mm
07:59 AM 42.8°F6.0°C 39.8°F4.3°C 89% 5.0 mph S8.0 kmh S 14.0 mph22.5 kmh 29.35 in993.9 mb 0.00 in0.0 mm 0.00 in0.0 mm 0.00 in0.0 mm
08:04 AM 42.9°F6.1°C 39.9°F4.4°C 89% 3.0 mph SSE4.8 kmh SSE 14.0 mph22.5 kmh 29.35 in993.9 mb 0.00 in0.0 mm 0.00 in0.0 mm 0.00 in0.0 mm
08:09 AM 43.0°F6.1°C 40.0°F4.4°C 89% Calm Calm 14.0 mph22.5 kmh 29.35 in993.9 mb 0.00 in0.0 mm 0.00 in0.0 mm 0.00 in0.0 mm
08:14 AM 43.1°F6.2°C 40.1°F4.5°C 89% 4.0 mph SSE6.4 kmh SSE 11.0 mph17.7 kmh 29.35 in993.9 mb 0.00 in0.0 mm 0.00 in0.0 mm 0.00 in0.0 mm
08:19 AM 43.1°F6.2°C 40.1°F4.5°C 89% 1.0 mph SW1.6 kmh SW 11.0 mph17.7 kmh 29.36 in994.2 mb 0.00 in0.0 mm 0.00 in0.0 mm 0.00 in0.0 mm
08:24 AM 43.1°F6.2°C 39.8°F4.3°C 88% 3.0 mph SE4.8 kmh SE 10.0 mph16.1 kmh 29.36 in994.2 mb 0.00 in0.0 mm 0.00 in0.0 mm 0.00 in0.0 mm
08:29 AM 43.1°F6.2°C 40.1°F4.5°C 89% 3.0 mph S4.8 kmh S 10.0 mph16.1 kmh 29.37 in994.6 mb 0.00 in0.0 mm 0.00 in0.0 mm 0.00 in0.0 mm
08:34 AM 43.2°F6.2°C 39.9°F4.4°C 88% 4.0 mph SSW6.4 kmh SSW 9.0 mph14.5 kmh 29.36 in994.2 mb 0.00 in0.0 mm 0.00 in0.0 mm 0.00 in0.0 mm
08:39 AM 43.4°F6.3°C 40.4°F4.7°C 89% 8.0 mph S12.9 kmh S 10.0 mph16.1 kmh 29.36 in994.2 mb 0.00 in0.0 mm 0.00 in0.0 mm 0.00 in0.0 mm
08:44 AM 43.7°F6.5°C 40.7°F4.8°C 89% 6.0 mph S9.7 kmh S 11.0 mph17.7 kmh 29.36 in994.2 mb 0.00 in0.0 mm 0.00 in0.0 mm 0.00 in0.0 mm
08:49 AM 44.0°F6.7°C 41.0°F5.0°C 89% 7.0 mph S11.3 kmh S 11.0 mph17.7 kmh 29.36 in994.2 mb 0.00 in0.0 mm 0.00 in0.0 mm 0.00 in0.0 mm
08:54 AM 44.3°F6.8°C 41.3°F5.2°C 89% 5.0 mph SSE8.0 kmh SSE 11.0 mph17.7 kmh 29.37 in994.6 mb 0.00 in0.0 mm 0.00 in0.0 mm 0.00 in0.0 mm
08:59 AM 44.5°F6.9°C 41.5°F5.3°C 89% 3.0 mph SE4.8 kmh SE 11.0 mph17.7 kmh 29.36 in994.2 mb 0.00 in0.0 mm 0.00 in0.0 mm 0.00 in0.0 mm
09:04 AM 44.7°F7.1°C 41.7°F5.4°C 89% 4.0 mph S6.4 kmh S 9.0 mph14.5 kmh 29.36 in994.2 mb 0.00 in0.0 mm 0.00 in0.0 mm 0.00 in0.0 mm
09:09 AM 44.8°F7.1°C 41.8°F5.4°C 89% 2.0 mph SSE3.2 kmh SSE 9.0 mph14.5 kmh 29.36 in994.2 mb 0.00 in0.0 mm 0.00 in0.0 mm 0.00 in0.0 mm
09:14 AM 44.9°F7.2°C 41.9°F5.5°C 89% 5.0 mph SW8.0 kmh SW 9.0 mph14.5 kmh 29.37 in994.6 mb 0.00 in0.0 mm 0.00 in0.0 mm 0.00 in0.0 mm
09:19 AM 45.1°F7.3°C 42.1°F5.6°C 89% 2.0 mph SSW3.2 kmh SSW 9.0 mph14.5 kmh 29.37 in994.6 mb 0.00 in0.0 mm 0.00 in0.0 mm 0.00 in0.0 mm
09:24 AM 45.2°F7.3°C 42.2°F5.7°C 89% 5.0 mph SE8.0 kmh SE 9.0 mph14.5 kmh 29.36 in994.2 mb 0.00 in0.0 mm 0.00 in0.0 mm 0.00 in0.0 mm
09:29 AM 45.4°F7.4°C 42.4°F5.8°C 89% 8.0 mph SE12.9 kmh SE 9.0 mph14.5 kmh 29.35 in993.9 mb 0.00 in0.0 mm 0.00 in0.0 mm 0.00 in0.0 mm
09:34 AM 45.7°F7.6°C 42.6°F5.9°C 89% 1.0 mph SE1.6 kmh SE 8.0 mph12.9 kmh 29.35 in993.9 mb 0.00 in0.0 mm 0.00 in0.0 mm 0.00 in0.0 mm
09:39 AM 46.0°F7.8°C 42.9°F6.1°C 89% 1.0 mph SE1.6 kmh SE 8.0 mph12.9 kmh 29.35 in993.9 mb 0.00 in0.0 mm 0.00 in0.0 mm 0.00 in0.0 mm
09:44 AM 46.2°F7.9°C 43.1°F6.2°C 89% 1.0 mph SE1.6 kmh SE 5.0 mph8.0 kmh 29.36 in994.2 mb 0.00 in0.0 mm 0.00 in0.0 mm 0.00 in0.0 mm
09:49 AM 46.5°F8.1°C 43.4°F6.3°C 89% Calm Calm 5.0 mph8.0 kmh 29.35 in993.9 mb 0.00 in0.0 mm 0.00 in0.0 mm 0.00 in0.0 mm
09:54 AM 46.7°F8.2°C 43.6°F6.4°C 89% Calm Calm 5.0 mph8.0 kmh 29.35 in993.9 mb 0.00 in0.0 mm 0.00 in0.0 mm 0.00 in0.0 mm
09:59 AM 47.4°F8.6°C 44.3°F6.8°C 89% 3.0 mph ESE4.8 kmh ESE 5.0 mph8.0 kmh 29.36 in994.2 mb 0.00 in0.0 mm 0.00 in0.0 mm 0.00 in0.0 mm
10:04 AM 47.9°F8.8°C 44.8°F7.1°C 89% 1.0 mph SW1.6 kmh SW 5.0 mph8.0 kmh 29.36 in994.2 mb 0.00 in0.0 mm 0.00 in0.0 mm 0.00 in0.0 mm
10:09 AM 47.7°F8.7°C 44.6°F7.0°C 89% 1.0 mph SSW1.6 kmh SSW 7.0 mph11.3 kmh 29.35 in993.9 mb 0.00 in0.0 mm 0.00 in0.0 mm 0.00 in0.0 mm
10:14 AM 47.8°F8.8°C 44.7°F7.1°C 89% 3.0 mph SSW4.8 kmh SSW 7.0 mph11.3 kmh 29.35 in993.9 mb 0.00 in0.0 mm 0.00 in0.0 mm 0.00 in0.0 mm
10:19 AM 48.5°F9.2°C 45.4°F7.4°C 89% 5.0 mph S8.0 kmh S 7.0 mph11.3 kmh 29.36 in994.2 mb 0.00 in0.0 mm 0.00 in0.0 mm 0.00 in0.0 mm
10:24 AM 48.2°F9.0°C 45.1°F7.3°C 89% 4.0 mph SSW6.4 kmh SSW 7.0 mph11.3 kmh 29.36 in994.2 mb 0.00 in0.0 mm 0.00 in0.0 mm 0.00 in0.0 mm
10:29 AM 48.7°F9.3°C 45.6°F7.6°C 89% 6.0 mph SSW9.7 kmh SSW 8.0 mph12.9 kmh 29.36 in994.2 mb 0.00 in0.0 mm 0.00 in0.0 mm 0.00 in0.0 mm
10:34 AM 49.0°F9.4°C 45.6°F7.6°C 88% 3.0 mph S4.8 kmh S 9.0 mph14.5 kmh 29.36 in994.2 mb 0.00 in0.0 mm 0.00 in0.0 mm 0.00 in0.0 mm
10:39 AM 49.2°F9.6°C 45.8°F7.7°C 88% 4.0 mph WSW6.4 kmh WSW 11.0 mph17.7 kmh 29.36 in994.2 mb 0.00 in0.0 mm 0.00 in0.0 mm 0.00 in0.0 mm
10:44 AM 49.4°F9.7°C 46.0°F7.8°C 88% 6.0 mph S9.7 kmh S 11.0 mph17.7 kmh 29.36 in994.2 mb 0.00 in0.0 mm 0.00 in0.0 mm 0.00 in0.0 mm
10:49 AM 50.1°F10.1°C 46.4°F8.0°C 87% 8.0 mph S12.9 kmh S 12.0 mph19.3 kmh 29.36 in994.2 mb 0.00 in0.0 mm 0.00 in0.0 mm 0.00 in0.0 mm
10:54 AM 50.6°F10.3°C 46.5°F8.1°C 86% 5.0 mph SSW8.0 kmh SSW 13.0 mph20.9 kmh 29.36 in994.2 mb 0.00 in0.0 mm 0.00 in0.0 mm 0.00 in0.0 mm
10:59 AM 51.0°F10.6°C 46.3°F7.9°C 84% 2.0 mph WSW3.2 kmh WSW 13.0 mph20.9 kmh 29.36 in994.2 mb 0.00 in0.0 mm 0.00 in0.0 mm 0.00 in0.0 mm
11:04 AM 51.4°F10.8°C 46.4°F8.0°C 83% 11.0 mph S17.7 kmh S 13.0 mph20.9 kmh 29.35 in993.9 mb 0.00 in0.0 mm 0.00 in0.0 mm 0.00 in0.0 mm
11:09 AM 51.6°F10.9°C 45.9°F7.7°C 81% 8.0 mph SSW12.9 kmh SSW 14.0 mph22.5 kmh 29.35 in993.9 mb 0.00 in0.0 mm 0.00 in0.0 mm 0.00 in0.0 mm
11:14 AM 52.0°F11.1°C 46.3°F7.9°C 81% 2.0 mph WSW3.2 kmh WSW 14.0 mph22.5 kmh 29.35 in993.9 mb 0.00 in0.0 mm 0.00 in0.0 mm 0.00 in0.0 mm
11:19 AM 52.4°F11.3°C 46.0°F7.8°C 79% 2.0 mph SSW3.2 kmh SSW 14.0 mph22.5 kmh 29.35 in993.9 mb 0.00 in0.0 mm 0.00 in0.0 mm 0.00 in0.0 mm
11:24 AM 52.5°F11.4°C 45.4°F7.4°C 77% 6.0 mph WSW9.7 kmh WSW 14.0 mph22.5 kmh 29.35 in993.9 mb 0.00 in0.0 mm 0.00 in0.0 mm 0.00 in0.0 mm
11:29 AM 52.8°F11.6°C 44.6°F7.0°C 74% 4.0 mph WSW6.4 kmh WSW 13.0 mph20.9 kmh 29.34 in993.6 mb 0.00 in0.0 mm 0.00 in0.0 mm 0.00 in0.0 mm
11:34 AM 53.0°F11.7°C 44.4°F6.9°C 73% 5.0 mph SW8.0 kmh SW 13.0 mph20.9 kmh 29.35 in993.9 mb 0.00 in0.0 mm 0.00 in0.0 mm 0.00 in0.0 mm
11:39 AM 52.9°F11.6°C 43.6°F6.4°C 71% 5.0 mph WSW8.0 kmh WSW 13.0 mph20.9 kmh 29.34 in993.6 mb 0.00 in0.0 mm 0.00 in0.0 mm 0.00 in0.0 mm
11:44 AM 53.2°F11.8°C 43.9°F6.6°C 71% 5.0 mph WSW8.0 kmh WSW 13.0 mph20.9 kmh 29.34 in993.6 mb 0.00 in0.0 mm 0.00 in0.0 mm 0.00 in0.0 mm
11:49 AM 53.4°F11.9°C 43.3°F6.3°C 69% 6.0 mph WSW9.7 kmh WSW 11.0 mph17.7 kmh 29.34 in993.6 mb 0.00 in0.0 mm 0.00 in0.0 mm 0.00 in0.0 mm
11:54 AM 53.4°F11.9°C 42.9°F6.1°C 68% 7.0 mph WSW11.3 kmh WSW 11.0 mph17.7 kmh 29.34 in993.6 mb 0.00 in0.0 mm 0.00 in0.0 mm 0.00 in0.0 mm
11:59 AM 53.3°F11.8°C 42.8°F6.0°C 68% 5.0 mph SW8.0 kmh SW 12.0 mph19.3 kmh 29.34 in993.6 mb 0.00 in0.0 mm 0.00 in0.0 mm 0.00 in0.0 mm
12:04 PM 53.2°F11.8°C 42.3°F5.7°C 67% 7.0 mph SW11.3 kmh SW 12.0 mph19.3 kmh 29.34 in993.6 mb 0.00 in0.0 mm 0.00 in0.0 mm 0.00 in0.0 mm
12:09 PM 53.2°F11.8°C 41.9°F5.5°C 66% 8.0 mph SW12.9 kmh SW 13.0 mph20.9 kmh 29.34 in993.6 mb 0.00 in0.0 mm 0.00 in0.0 mm 0.00 in0.0 mm
12:14 PM 53.3°F11.8°C 42.0°F5.6°C 66% 5.0 mph SW8.0 kmh SW 13.0 mph20.9 kmh 29.34 in993.6 mb 0.00 in0.0 mm 0.00 in0.0 mm 0.00 in0.0 mm
12:19 PM 53.3°F11.8°C 41.6°F5.3°C 65% 4.0 mph SW6.4 kmh SW 13.0 mph20.9 kmh 29.34 in993.6 mb 0.00 in0.0 mm 0.00 in0.0 mm 0.00 in0.0 mm
12:24 PM 53.5°F11.9°C 42.2°F5.7°C 66% 5.0 mph WSW8.0 kmh WSW 13.0 mph20.9 kmh 29.34 in993.6 mb 0.00 in0.0 mm 0.00 in0.0 mm 0.00 in0.0 mm
12:29 PM 53.9°F12.2°C 42.2°F5.7°C 65% 4.0 mph SW6.4 kmh SW 10.0 mph16.1 kmh 29.34 in993.6 mb 0.00 in0.0 mm 0.00 in0.0 mm 0.00 in0.0 mm
12:34 PM 54.4°F12.4°C 42.2°F5.7°C 64% 4.0 mph SW6.4 kmh SW 10.0 mph16.1 kmh 29.33 in993.2 mb 0.00 in0.0 mm 0.00 in0.0 mm 0.00 in0.0 mm
12:39 PM 54.2°F12.3°C 41.6°F5.3°C 63% 9.0 mph WSW14.5 kmh WSW 12.0 mph19.3 kmh 29.33 in993.2 mb 0.00 in0.0 mm 0.00 in0.0 mm 0.00 in0.0 mm
12:44 PM 54.0°F12.2°C 41.4°F5.2°C 63% 6.0 mph WSW9.7 kmh WSW 12.0 mph19.3 kmh 29.33 in993.2 mb 0.00 in0.0 mm 0.00 in0.0 mm 0.00 in0.0 mm
12:49 PM 54.1°F12.3°C 41.5°F5.3°C 63% 2.0 mph WSW3.2 kmh WSW 12.0 mph19.3 kmh 29.33 in993.2 mb 0.00 in0.0 mm 0.00 in0.0 mm 0.00 in0.0 mm
12:54 PM 54.3°F12.4°C 41.3°F5.2°C 62% 5.0 mph WSW8.0 kmh WSW 12.0 mph19.3 kmh 29.33 in993.2 mb 0.00 in0.0 mm 0.00 in0.0 mm 0.00 in0.0 mm
12:59 PM 54.2°F12.3°C 40.7°F4.8°C 61% 7.0 mph WSW11.3 kmh WSW 11.0 mph17.7 kmh 29.33 in993.2 mb 0.00 in0.0 mm 0.00 in0.0 mm 0.00 in0.0 mm
01:04 PM 54.1°F12.3°C 39.8°F4.3°C 59% 6.0 mph WSW9.7 kmh WSW 13.0 mph20.9 kmh 29.33 in993.2 mb 0.00 in0.0 mm 0.00 in0.0 mm 0.00 in0.0 mm
01:09 PM 54.0°F12.2°C 39.2°F4.0°C 58% 9.0 mph WSW14.5 kmh WSW 13.0 mph20.9 kmh 29.33 in993.2 mb 0.00 in0.0 mm 0.00 in0.0 mm 0.00 in0.0 mm
01:14 PM 53.9°F12.2°C 39.1°F3.9°C 58% 6.0 mph SW9.7 kmh SW 13.0 mph20.9 kmh 29.33 in993.2 mb 0.00 in0.0 mm 0.00 in0.0 mm 0.00 in0.0 mm
01:19 PM 54.1°F12.3°C 39.3°F4.1°C 58% 8.0 mph WSW12.9 kmh WSW 13.0 mph20.9 kmh 29.33 in993.2 mb 0.00 in0.0 mm 0.00 in0.0 mm 0.00 in0.0 mm
01:24 PM 54.5°F12.5°C 39.7°F4.3°C 58% 7.0 mph SW11.3 kmh SW 12.0 mph19.3 kmh 29.32 in992.9 mb 0.00 in0.0 mm 0.00 in0.0 mm 0.00 in0.0 mm
01:29 PM 54.5°F12.5°C 39.2°F4.0°C 57% 4.0 mph SW6.4 kmh SW 12.0 mph19.3 kmh 29.32 in992.9 mb 0.00 in0.0 mm 0.00 in0.0 mm 0.00 in0.0 mm
01:34 PM 54.6°F12.6°C 39.3°F4.1°C 57% 4.0 mph SW6.4 kmh SW 10.0 mph16.1 kmh 29.32 in992.9 mb 0.00 in0.0 mm 0.00 in0.0 mm 0.00 in0.0 mm
01:39 PM 54.9°F12.7°C 39.1°F3.9°C 56% 6.0 mph S9.7 kmh S 10.0 mph16.1 kmh 29.32 in992.9 mb 0.00 in0.0 mm 0.00 in0.0 mm 0.00 in0.0 mm
01:44 PM 54.8°F12.7°C 38.6°F3.7°C 55% 7.0 mph SW11.3 kmh SW 10.0 mph16.1 kmh 29.32 in992.9 mb 0.00 in0.0 mm 0.00 in0.0 mm 0.00 in0.0 mm
01:49 PM 54.5°F12.5°C 38.3°F3.5°C 55% 3.0 mph WSW4.8 kmh WSW 10.0 mph16.1 kmh 29.32 in992.9 mb 0.00 in0.0 mm 0.00 in0.0 mm 0.00 in0.0 mm
01:54 PM 54.4°F12.4°C 38.2°F3.4°C 55% 4.0 mph SW6.4 kmh SW 10.0 mph16.1 kmh 29.32 in992.9 mb 0.00 in0.0 mm 0.00 in0.0 mm 0.00 in0.0 mm
01:59 PM 54.5°F12.5°C 38.8°F3.8°C 56% 5.0 mph W8.0 kmh W 10.0 mph16.1 kmh 29.32 in992.9 mb 0.00 in0.0 mm 0.00 in0.0 mm 0.00 in0.0 mm
02:04 PM 54.1°F12.3°C 39.8°F4.3°C 59% 8.0 mph WNW12.9 kmh WNW 10.0 mph16.1 kmh 29.32 in992.9 mb 0.00 in0.0 mm 0.00 in0.0 mm 0.00 in0.0 mm
02:09 PM 53.4°F11.9°C 39.6°F4.2°C 60% 3.0 mph W4.8 kmh W 12.0 mph19.3 kmh 29.32 in992.9 mb 0.00 in0.0 mm 0.00 in0.0 mm 0.00 in0.0 mm
02:14 PM 53.1°F11.7°C 39.7°F4.3°C 61% 4.0 mph W6.4 kmh W 12.0 mph19.3 kmh 29.33 in993.2 mb 0.00 in0.0 mm 0.00 in0.0 mm 0.00 in0.0 mm
02:19 PM 52.8°F11.6°C 39.9°F4.4°C 62% 4.0 mph WSW6.4 kmh WSW 12.0 mph19.3 kmh 29.33 in993.2 mb 0.00 in0.0 mm 0.00 in0.0 mm 0.00 in0.0 mm
02:24 PM 52.5°F11.4°C 39.6°F4.2°C 62% 3.0 mph WNW4.8 kmh WNW 12.0 mph19.3 kmh 29.33 in993.2 mb 0.00 in0.0 mm 0.00 in0.0 mm 0.00 in0.0 mm
02:29 PM 52.2°F11.2°C 39.7°F4.3°C 63% 2.0 mph WNW3.2 kmh WNW 8.0 mph12.9 kmh 29.33 in993.2 mb 0.00 in0.0 mm 0.00 in0.0 mm 0.00 in0.0 mm
02:34 PM 51.9°F11.1°C 39.9°F4.4°C 64% 3.0 mph WNW4.8 kmh WNW 8.0 mph12.9 kmh 29.33 in993.2 mb 0.00 in0.0 mm 0.00 in0.0 mm 0.00 in0.0 mm
02:39 PM 51.6°F10.9°C 39.6°F4.2°C 64% 2.0 mph WNW3.2 kmh WNW 8.0 mph12.9 kmh 29.34 in993.6 mb 0.00 in0.0 mm 0.00 in0.0 mm 0.00 in0.0 mm
02:44 PM 51.3°F10.7°C 39.7°F4.3°C 65% 6.0 mph WSW9.7 kmh WSW 8.0 mph12.9 kmh 29.36 in994.2 mb 0.00 in0.0 mm 0.00 in0.0 mm 0.00 in0.0 mm
02:49 PM 50.4°F10.2°C 37.6°F3.1°C 62% 6.0 mph WSW9.7 kmh WSW 13.0 mph20.9 kmh 29.36 in994.2 mb 0.00 in0.0 mm 0.00 in0.0 mm 0.00 in0.0 mm
02:54 PM 49.3°F9.6°C 37.4°F3.0°C 64% 8.0 mph SW12.9 kmh SW 17.0 mph27.4 kmh 29.36 in994.2 mb 0.00 in0.0 mm 0.00 in0.0 mm 0.00 in0.0 mm
02:59 PM 48.3°F9.1°C 37.7°F3.2°C 67% 7.0 mph SSW11.3 kmh SSW 17.0 mph27.4 kmh 29.37 in994.6 mb 0.00 in0.0 mm 0.00 in0.0 mm 0.00 in0.0 mm
03:04 PM 47.4°F8.6°C 37.9°F3.3°C 70% 5.0 mph SSW8.0 kmh SSW 17.0 mph27.4 kmh 29.38 in994.9 mb 0.00 in0.0 mm 0.00 in0.0 mm 0.00 in0.0 mm
03:09 PM 46.7°F8.2°C 38.4°F3.6°C 73% 8.0 mph SSW12.9 kmh SSW 17.0 mph27.4 kmh 29.39 in995.3 mb 0.00 in0.0 mm 0.00 in0.0 mm 0.00 in0.0 mm
03:14 PM 46.1°F7.8°C 38.5°F3.6°C 75% 4.0 mph WSW6.4 kmh WSW 15.0 mph24.1 kmh 29.39 in995.3 mb 0.00 in0.0 mm 0.00 in0.0 mm 0.00 in0.0 mm
03:19 PM 45.7°F7.6°C 38.5°F3.6°C 76% 5.0 mph SE8.0 kmh SE 15.0 mph24.1 kmh 29.38 in994.9 mb 0.00 in0.0 mm 0.00 in0.0 mm 0.00 in0.0 mm
03:24 PM 45.4°F7.4°C 38.9°F3.8°C 78% 3.0 mph SSE4.8 kmh SSE 8.0 mph12.9 kmh 29.38 in994.9 mb 0.00 in0.0 mm 0.00 in0.0 mm 0.00 in0.0 mm
03:29 PM 45.2°F7.3°C 39.0°F3.9°C 79% 7.0 mph SE11.3 kmh SE 9.0 mph14.5 kmh 29.38 in994.9 mb 0.00 in0.0 mm 0.00 in0.0 mm 0.00 in0.0 mm
03:34 PM 44.8°F7.1°C 38.9°F3.8°C 80% 5.0 mph ESE8.0 kmh ESE 16.0 mph25.7 kmh 29.38 in994.9 mb 0.00 in0.0 mm 0.00 in0.0 mm 0.00 in0.0 mm
03:39 PM 44.5°F6.9°C 39.0°F3.9°C 81% 4.0 mph ESE6.4 kmh ESE 16.0 mph25.7 kmh 29.37 in994.6 mb 0.00 in0.0 mm 0.00 in0.0 mm 0.00 in0.0 mm
03:44 PM 44.4°F6.9°C 38.9°F3.8°C 81% Calm Calm 16.0 mph25.7 kmh 29.38 in994.9 mb 0.00 in0.0 mm 0.00 in0.0 mm 0.00 in0.0 mm
03:49 PM 44.2°F6.8°C 39.0°F3.9°C 82% 2.0 mph S3.2 kmh S 16.0 mph25.7 kmh 29.39 in995.3 mb 0.00 in0.0 mm 0.00 in0.0 mm 0.00 in0.0 mm
03:54 PM 44.2°F6.8°C 39.0°F3.9°C 82% 10.0 mph WSW16.1 kmh WSW 11.0 mph17.7 kmh 29.41 in995.9 mb 0.00 in0.0 mm 0.00 in0.0 mm 0.00 in0.0 mm
03:59 PM 43.9°F6.6°C 38.7°F3.7°C 82% 8.0 mph WSW12.9 kmh WSW 13.0 mph20.9 kmh 29.42 in996.3 mb 0.00 in0.0 mm 0.00 in0.0 mm 0.00 in0.0 mm
04:04 PM 43.0°F6.1°C 38.2°F3.4°C 83% 5.0 mph W8.0 kmh W 13.0 mph20.9 kmh 29.42 in996.3 mb 0.00 in0.0 mm 0.00 in0.0 mm 0.00 in0.0 mm
04:09 PM 42.5°F5.8°C 37.7°F3.2°C 83% 4.0 mph W6.4 kmh W 13.0 mph20.9 kmh 29.42 in996.3 mb 0.00 in0.0 mm 0.00 in0.0 mm 0.00 in0.0 mm
04:14 PM 42.1°F5.6°C 37.6°F3.1°C 84% 2.0 mph W3.2 kmh W 13.0 mph20.9 kmh 29.43 in996.6 mb 0.00 in0.0 mm 0.00 in0.0 mm 0.00 in0.0 mm
04:19 PM 41.8°F5.4°C 37.3°F2.9°C 84% 3.0 mph WSW4.8 kmh WSW 9.0 mph14.5 kmh 29.43 in996.6 mb 0.00 in0.0 mm 0.00 in0.0 mm 0.00 in0.0 mm
04:24 PM 41.6°F5.3°C 37.1°F2.8°C 84% 2.0 mph W3.2 kmh W 9.0 mph14.5 kmh 29.43 in996.6 mb 0.00 in0.0 mm 0.00 in0.0 mm 0.00 in0.0 mm
04:29 PM 41.5°F5.3°C 37.0°F2.8°C 84% 2.0 mph WNW3.2 kmh WNW 5.0 mph8.0 kmh 29.42 in996.3 mb 0.00 in0.0 mm 0.00 in0.0 mm 0.00 in0.0 mm
04:34 PM 41.4°F5.2°C 37.2°F2.9°C 85% 2.0 mph WNW3.2 kmh WNW 5.0 mph8.0 kmh 29.43 in996.6 mb 0.00 in0.0 mm 0.00 in0.0 mm 0.00 in0.0 mm
04:39 PM 41.4°F5.2°C 37.2°F2.9°C 85% 1.0 mph WNW1.6 kmh WNW 5.0 mph8.0 kmh 29.43 in996.6 mb 0.00 in0.0 mm 0.00 in0.0 mm 0.00 in0.0 mm
04:44 PM 41.4°F5.2°C 37.2°F2.9°C 85% 4.0 mph WSW6.4 kmh WSW 5.0 mph8.0 kmh 29.43 in996.6 mb 0.00 in0.0 mm 0.00 in0.0 mm 0.00 in0.0 mm
04:49 PM 41.5°F5.3°C 37.6°F3.1°C 86% 3.0 mph WSW4.8 kmh WSW 5.0 mph8.0 kmh 29.43 in996.6 mb 0.00 in0.0 mm 0.00 in0.0 mm 0.00 in0.0 mm
04:54 PM 41.5°F5.3°C 37.6°F3.1°C 86% 4.0 mph WSW6.4 kmh WSW 8.0 mph12.9 kmh 29.43 in996.6 mb 0.00 in0.0 mm 0.00 in0.0 mm 0.00 in0.0 mm
04:59 PM 41.5°F5.3°C 37.6°F3.1°C 86% 7.0 mph WSW11.3 kmh WSW 10.0 mph16.1 kmh 29.44 in997.0 mb 0.00 in0.0 mm 0.00 in0.0 mm 0.00 in0.0 mm
05:04 PM 41.5°F5.3°C 37.6°F3.1°C 86% 7.0 mph W11.3 kmh W 10.0 mph16.1 kmh 29.44 in997.0 mb 0.00 in0.0 mm 0.00 in0.0 mm 0.00 in0.0 mm
05:09 PM 41.5°F5.3°C 37.6°F3.1°C 86% 7.0 mph WSW11.3 kmh WSW 10.0 mph16.1 kmh 29.45 in997.3 mb 0.00 in0.0 mm 0.00 in0.0 mm 0.00 in0.0 mm
05:14 PM 41.5°F5.3°C 37.6°F3.1°C 86% 8.0 mph WSW12.9 kmh WSW 10.0 mph16.1 kmh 29.45 in997.3 mb 0.00 in0.0 mm 0.00 in0.0 mm 0.00 in0.0 mm
05:19 PM 41.4°F5.2°C 37.5°F3.1°C 86% 6.0 mph W9.7 kmh W 11.0 mph17.7 kmh 29.46 in997.6 mb 0.00 in0.0 mm 0.00 in0.0 mm 0.00 in0.0 mm
05:24 PM 41.1°F5.1°C 37.2°F2.9°C 86% 5.0 mph WSW8.0 kmh WSW 12.0 mph19.3 kmh 29.46 in997.6 mb 0.00 in0.0 mm 0.00 in0.0 mm 0.00 in0.0 mm
05:29 PM 40.8°F4.9°C 36.9°F2.7°C 86% 7.0 mph WSW11.3 kmh WSW 17.0 mph27.4 kmh 29.46 in997.6 mb 0.00 in0.0 mm 0.00 in0.0 mm 0.00 in0.0 mm
05:34 PM 40.3°F4.6°C 36.4°F2.4°C 86% 4.0 mph WSW6.4 kmh WSW 17.0 mph27.4 kmh 29.46 in997.6 mb 0.00 in0.0 mm 0.00 in0.0 mm 0.00 in0.0 mm
05:39 PM 40.2°F4.6°C 36.3°F2.4°C 86% 5.0 mph W8.0 kmh W 17.0 mph27.4 kmh 29.47 in998.0 mb 0.00 in0.0 mm 0.00 in0.0 mm 0.00 in0.0 mm
05:44 PM 40.1°F4.5°C 36.2°F2.3°C 86% 5.0 mph WSW8.0 kmh WSW 17.0 mph27.4 kmh 29.47 in998.0 mb 0.00 in0.0 mm 0.00 in0.0 mm 0.00 in0.0 mm
05:49 PM 40.0°F4.4°C 36.2°F2.3°C 86% 3.0 mph WNW4.8 kmh WNW 13.0 mph20.9 kmh 29.47 in998.0 mb 0.00 in0.0 mm 0.00 in0.0 mm 0.00 in0.0 mm
05:54 PM 40.0°F4.4°C 36.2°F2.3°C 86% 4.0 mph WSW6.4 kmh WSW 13.0 mph20.9 kmh 29.47 in998.0 mb 0.00 in0.0 mm 0.00 in0.0 mm 0.00 in0.0 mm
05:59 PM 40.0°F4.4°C 36.2°F2.3°C 86% 4.0 mph WSW6.4 kmh WSW 11.0 mph17.7 kmh 29.48 in998.3 mb 0.00 in0.0 mm 0.00 in0.0 mm 0.00 in0.0 mm
06:04 PM 39.9°F4.4°C 36.1°F2.3°C 86% 7.0 mph WSW11.3 kmh WSW 11.0 mph17.7 kmh 29.48 in998.3 mb 0.00 in0.0 mm 0.00 in0.0 mm 0.00 in0.0 mm
06:09 PM 39.8°F4.3°C 36.0°F2.2°C 86% 9.0 mph WSW14.5 kmh WSW 12.0 mph19.3 kmh 29.48 in998.3 mb 0.00 in0.0 mm 0.00 in0.0 mm 0.00 in0.0 mm
06:14 PM 39.7°F4.3°C 35.9°F2.2°C 86% 3.0 mph W4.8 kmh W 12.0 mph19.3 kmh 29.48 in998.3 mb 0.00 in0.0 mm 0.00 in0.0 mm 0.00 in0.0 mm
06:19 PM 39.7°F4.3°C 35.9°F2.2°C 86% 3.0 mph WSW4.8 kmh WSW 12.0 mph19.3 kmh 29.49 in998.6 mb 0.00 in0.0 mm 0.00 in0.0 mm 0.00 in0.0 mm
06:24 PM 39.7°F4.3°C 35.9°F2.2°C 86% 2.0 mph WSW3.2 kmh WSW 12.0 mph19.3 kmh 29.48 in998.3 mb 0.00 in0.0 mm 0.00 in0.0 mm 0.00 in0.0 mm
06:29 PM 39.6°F4.2°C 35.8°F2.1°C 86% 3.0 mph WSW4.8 kmh WSW 7.0 mph11.3 kmh 29.49 in998.6 mb 0.00 in0.0 mm 0.00 in0.0 mm 0.00 in0.0 mm
06:34 PM 39.6°F4.2°C 35.8°F2.1°C 86% 3.0 mph WSW4.8 kmh WSW 7.0 mph11.3 kmh 29.49 in998.6 mb 0.00 in0.0 mm 0.00 in0.0 mm 0.00 in0.0 mm
06:39 PM 39.6°F4.2°C 35.8°F2.1°C 86% 3.0 mph WSW4.8 kmh WSW 9.0 mph14.5 kmh 29.49 in998.6 mb 0.00 in0.0 mm 0.00 in0.0 mm 0.00 in0.0 mm
06:44 PM 39.6°F4.2°C 35.8°F2.1°C 86% 4.0 mph WSW6.4 kmh WSW 9.0 mph14.5 kmh 29.49 in998.6 mb 0.00 in0.0 mm 0.00 in0.0 mm 0.00 in0.0 mm
06:49 PM 39.6°F4.2°C 35.8°F2.1°C 86% 4.0 mph WSW6.4 kmh WSW 9.0 mph14.5 kmh 29.50 in999.0 mb 0.00 in0.0 mm 0.00 in0.0 mm 0.00 in0.0 mm
06:55 PM 39.6°F4.2°C 35.8°F2.1°C 86% 5.0 mph WSW8.0 kmh WSW 9.0 mph14.5 kmh 29.50 in999.0 mb 0.00 in0.0 mm 0.00 in0.0 mm 0.00 in0.0 mm
07:00 PM 39.5°F4.2°C 35.7°F2.1°C 86% 3.0 mph WSW4.8 kmh WSW 7.0 mph11.3 kmh 29.50 in999.0 mb 0.00 in0.0 mm 0.00 in0.0 mm 0.00 in0.0 mm
07:05 PM 39.5°F4.2°C 35.7°F2.1°C 86% 1.0 mph SW1.6 kmh SW 7.0 mph11.3 kmh 29.50 in999.0 mb 0.00 in0.0 mm 0.00 in0.0 mm 0.00 in0.0 mm
07:10 PM 39.5°F4.2°C 35.7°F2.1°C 86% 5.0 mph WSW8.0 kmh WSW 7.0 mph11.3 kmh 29.51 in999.3 mb 0.00 in0.0 mm 0.00 in0.0 mm 0.00 in0.0 mm
07:15 PM 39.4°F4.1°C 35.3°F1.8°C 85% 2.0 mph SW3.2 kmh SW 8.0 mph12.9 kmh 29.51 in999.3 mb 0.00 in0.0 mm 0.00 in0.0 mm 0.00 in0.0 mm
07:20 PM 39.5°F4.2°C 35.4°F1.9°C 85% 1.0 mph WSW1.6 kmh WSW 8.0 mph12.9 kmh 29.51 in999.3 mb 0.00 in0.0 mm 0.00 in0.0 mm 0.00 in0.0 mm
07:25 PM 39.5°F4.2°C 35.4°F1.9°C 85% 4.0 mph WSW6.4 kmh WSW 8.0 mph12.9 kmh 29.51 in999.3 mb 0.00 in0.0 mm 0.00 in0.0 mm 0.00 in0.0 mm
07:30 PM 39.5°F4.2°C 35.4°F1.9°C 85% 3.0 mph WSW4.8 kmh WSW 8.0 mph12.9 kmh 29.51 in999.3 mb 0.00 in0.0 mm 0.00 in0.0 mm 0.00 in0.0 mm
07:35 PM 39.4°F4.1°C 35.3°F1.8°C 85% 6.0 mph SW9.7 kmh SW 7.0 mph11.3 kmh 29.51 in999.3 mb 0.00 in0.0 mm 0.00 in0.0 mm 0.00 in0.0 mm
07:40 PM 39.4°F4.1°C 35.3°F1.8°C 85% 10.0 mph WSW16.1 kmh WSW 14.0 mph22.5 kmh 29.52 in999.7 mb 0.00 in0.0 mm 0.00 in0.0 mm 0.00 in0.0 mm
07:45 PM 39.0°F3.9°C 34.6°F1.4°C 84% 4.0 mph WSW6.4 kmh WSW 14.0 mph22.5 kmh 29.52 in999.7 mb 0.00 in0.0 mm 0.00 in0.0 mm 0.00 in0.0 mm
07:50 PM 38.7°F3.7°C 34.0°F1.1°C 83% 5.0 mph WSW8.0 kmh WSW 14.0 mph22.5 kmh 29.52 in999.7 mb 0.00 in0.0 mm 0.00 in0.0 mm 0.00 in0.0 mm
07:55 PM 38.6°F3.7°C 33.9°F1.1°C 83% 4.0 mph WSW6.4 kmh WSW 14.0 mph22.5 kmh 29.52 in999.7 mb 0.00 in0.0 mm 0.00 in0.0 mm 0.00 in0.0 mm
08:00 PM 38.5°F3.6°C 33.5°F0.8°C 82% 5.0 mph WSW8.0 kmh WSW 11.0 mph17.7 kmh 29.52 in999.7 mb 0.00 in0.0 mm 0.00 in0.0 mm 0.00 in0.0 mm
08:05 PM 38.5°F3.6°C 33.1°F0.6°C 81% 6.0 mph SW9.7 kmh SW 11.0 mph17.7 kmh 29.52 in999.7 mb 0.00 in0.0 mm 0.00 in0.0 mm 0.00 in0.0 mm
08:10 PM 38.4°F3.6°C 33.0°F0.6°C 81% 5.0 mph WSW8.0 kmh WSW 9.0 mph14.5 kmh 29.52 in999.7 mb 0.00 in0.0 mm 0.00 in0.0 mm 0.00 in0.0 mm
08:15 PM 38.3°F3.5°C 33.0°F0.6°C 81% 1.0 mph WSW1.6 kmh WSW 9.0 mph14.5 kmh 29.53 in1000.0 mb 0.00 in0.0 mm 0.00 in0.0 mm 0.00 in0.0 mm
08:20 PM 38.3°F3.5°C 32.6°F0.3°C 80% 2.0 mph SW3.2 kmh SW 9.0 mph14.5 kmh 29.53 in1000.0 mb 0.00 in0.0 mm 0.00 in0.0 mm 0.00 in0.0 mm
08:25 PM 38.3°F3.5°C 32.6°F0.3°C 80% 1.0 mph WSW1.6 kmh WSW 9.0 mph14.5 kmh 29.53 in1000.0 mb 0.00 in0.0 mm 0.00 in0.0 mm 0.00 in0.0 mm
08:30 PM 38.2°F3.4°C 32.5°F0.3°C 80% 2.0 mph SW3.2 kmh SW 9.0 mph14.5 kmh 29.53 in1000.0 mb 0.00 in0.0 mm 0.00 in0.0 mm 0.00 in0.0 mm
08:35 PM 38.1°F3.4°C 32.4°F0.2°C 80% 3.0 mph WSW4.8 kmh WSW 9.0 mph14.5 kmh 29.53 in1000.0 mb 0.00 in0.0 mm 0.00 in0.0 mm 0.00 in0.0 mm
08:40 PM 38.0°F3.3°C 32.3°F0.2°C 80% 5.0 mph SW8.0 kmh SW 7.0 mph11.3 kmh 29.53 in1000.0 mb 0.00 in0.0 mm 0.00 in0.0 mm 0.00 in0.0 mm
08:45 PM 38.0°F3.3°C 32.3°F0.2°C 80% 4.0 mph WSW6.4 kmh WSW 7.0 mph11.3 kmh 29.53 in1000.0 mb 0.00 in0.0 mm 0.00 in0.0 mm 0.00 in0.0 mm
08:50 PM 38.0°F3.3°C 32.0°F0.0°C 79% 2.0 mph W3.2 kmh W 9.0 mph14.5 kmh 29.53 in1000.0 mb 0.00 in0.0 mm 0.00 in0.0 mm 0.00 in0.0 mm
08:55 PM 37.9°F3.3°C 32.2°F0.1°C 80% 3.0 mph SW4.8 kmh SW 9.0 mph14.5 kmh 29.53 in1000.0 mb 0.00 in0.0 mm 0.00 in0.0 mm 0.00 in0.0 mm
09:00 PM 37.9°F3.3°C 31.9°F-0.1°C 79% 2.0 mph WSW3.2 kmh WSW 9.0 mph14.5 kmh 29.54 in1000.3 mb 0.00 in0.0 mm 0.00 in0.0 mm 0.00 in0.0 mm
09:05 PM 37.8°F3.2°C 31.8°F-0.1°C 79% 4.0 mph WSW6.4 kmh WSW 9.0 mph14.5 kmh 29.54 in1000.3 mb 0.00 in0.0 mm 0.00 in0.0 mm 0.00 in0.0 mm
09:10 PM 37.8°F3.2°C 31.8°F-0.1°C 79% 2.0 mph WSW3.2 kmh WSW 6.0 mph9.7 kmh 29.54 in1000.3 mb 0.00 in0.0 mm 0.00 in0.0 mm 0.00 in0.0 mm
09:15 PM 37.8°F3.2°C 31.8°F-0.1°C 79% 4.0 mph SW6.4 kmh SW 7.0 mph11.3 kmh 29.54 in1000.3 mb 0.00 in0.0 mm 0.00 in0.0 mm 0.00 in0.0 mm
09:20 PM 37.7°F3.2°C 31.7°F-0.2°C 79% 3.0 mph WSW4.8 kmh WSW 7.0 mph11.3 kmh 29.53 in1000.0 mb 0.00 in0.0 mm 0.00 in0.0 mm 0.00 in0.0 mm
09:25 PM 37.7°F3.2°C 31.7°F-0.2°C 79% 3.0 mph SW4.8 kmh SW 7.0 mph11.3 kmh 29.53 in1000.0 mb 0.00 in0.0 mm 0.00 in0.0 mm 0.00 in0.0 mm
09:30 PM 37.6°F3.1°C 31.6°F-0.2°C 79% 2.0 mph SW3.2 kmh SW 7.0 mph11.3 kmh 29.53 in1000.0 mb 0.00 in0.0 mm 0.00 in0.0 mm 0.00 in0.0 mm
09:35 PM 37.6°F3.1°C 31.6°F-0.2°C 79% 4.0 mph SW6.4 kmh SW 7.0 mph11.3 kmh 29.53 in1000.0 mb 0.00 in0.0 mm 0.00 in0.0 mm 0.00 in0.0 mm
09:40 PM 37.5°F3.1°C 31.5°F-0.3°C 79% 4.0 mph SW6.4 kmh SW 7.0 mph11.3 kmh 29.53 in1000.0 mb 0.00 in0.0 mm 0.00 in0.0 mm 0.00 in0.0 mm
09:45 PM 37.4°F3.0°C 31.4°F-0.3°C 79% 2.0 mph SW3.2 kmh SW 6.0 mph9.7 kmh 29.54 in1000.3 mb 0.00 in0.0 mm 0.00 in0.0 mm 0.00 in0.0 mm
09:50 PM 37.4°F3.0°C 31.4°F-0.3°C 79% 2.0 mph SW3.2 kmh SW 6.0 mph9.7 kmh 29.53 in1000.0 mb 0.00 in0.0 mm 0.00 in0.0 mm 0.00 in0.0 mm
09:55 PM 37.3°F2.9°C 31.3°F-0.4°C 79% 3.0 mph SSW4.8 kmh SSW 6.0 mph9.7 kmh 29.53 in1000.0 mb 0.00 in0.0 mm 0.00 in0.0 mm 0.00 in0.0 mm
10:00 PM 37.2°F2.9°C 31.6°F-0.2°C 80% 2.0 mph SW3.2 kmh SW 6.0 mph9.7 kmh 29.54 in1000.3 mb 0.00 in0.0 mm 0.00 in0.0 mm 0.00 in0.0 mm
10:05 PM 37.2°F2.9°C 31.6°F-0.2°C 80% 4.0 mph WSW6.4 kmh WSW 6.0 mph9.7 kmh 29.54 in1000.3 mb 0.00 in0.0 mm 0.00 in0.0 mm 0.00 in0.0 mm
10:10 PM 37.1°F2.8°C 31.5°F-0.3°C 80% 2.0 mph SW3.2 kmh SW 6.0 mph9.7 kmh 29.54 in1000.3 mb 0.00 in0.0 mm 0.00 in0.0 mm 0.00 in0.0 mm
10:15 PM 37.0°F2.8°C 31.4°F-0.3°C 80% 2.0 mph SW3.2 kmh SW 6.0 mph9.7 kmh 29.54 in1000.3 mb 0.00 in0.0 mm 0.00 in0.0 mm 0.00 in0.0 mm
10:20 PM 36.9°F2.7°C 31.3°F-0.4°C 80% 2.0 mph SW3.2 kmh SW 6.0 mph9.7 kmh 29.54 in1000.3 mb 0.00 in0.0 mm 0.00 in0.0 mm 0.00 in0.0 mm
10:25 PM 36.8°F2.7°C 31.2°F-0.4°C 80% 3.0 mph SW4.8 kmh SW 5.0 mph8.0 kmh 29.54 in1000.3 mb 0.00 in0.0 mm 0.00 in0.0 mm 0.00 in0.0 mm
10:30 PM 36.8°F2.7°C 31.5°F-0.3°C 81% 2.0 mph SW3.2 kmh SW 5.0 mph8.0 kmh 29.54 in1000.3 mb 0.00 in0.0 mm 0.00 in0.0 mm 0.00 in0.0 mm
10:35 PM 36.7°F2.6°C 31.4°F-0.3°C 81% 2.0 mph WSW3.2 kmh WSW 5.0 mph8.0 kmh 29.54 in1000.3 mb 0.00 in0.0 mm 0.00 in0.0 mm 0.00 in0.0 mm
10:40 PM 36.6°F2.6°C 31.3°F-0.4°C 81% 2.0 mph SW3.2 kmh SW 6.0 mph9.7 kmh 29.54 in1000.3 mb 0.00 in0.0 mm 0.00 in0.0 mm 0.00 in0.0 mm
10:45 PM 36.6°F2.6°C 31.3°F-0.4°C 81% 1.0 mph SW1.6 kmh SW 6.0 mph9.7 kmh 29.54 in1000.3 mb 0.00 in0.0 mm 0.00 in0.0 mm 0.00 in0.0 mm
10:50 PM 36.6°F2.6°C 31.3°F-0.4°C 81% 4.0 mph SW6.4 kmh SW 6.0 mph9.7 kmh 29.54 in1000.3 mb 0.00 in0.0 mm 0.00 in0.0 mm 0.00 in0.0 mm
10:55 PM 36.5°F2.5°C 31.2°F-0.4°C 81% 2.0 mph WSW3.2 kmh WSW 6.0 mph9.7 kmh 29.55 in1000.7 mb 0.00 in0.0 mm 0.00 in0.0 mm 0.00 in0.0 mm
11:00 PM 36.5°F2.5°C 31.5°F-0.3°C 82% 2.0 mph SW3.2 kmh SW 6.0 mph9.7 kmh 29.55 in1000.7 mb 0.00 in0.0 mm 0.00 in0.0 mm 0.00 in0.0 mm
11:05 PM 36.5°F2.5°C 31.5°F-0.3°C 82% 2.0 mph SW3.2 kmh SW 6.0 mph9.7 kmh 29.55 in1000.7 mb 0.00 in0.0 mm 0.00 in0.0 mm 0.00 in0.0 mm
11:10 PM 36.5°F2.5°C 31.5°F-0.3°C 82% 2.0 mph SW3.2 kmh SW 5.0 mph8.0 kmh 29.55 in1000.7 mb 0.00 in0.0 mm 0.00 in0.0 mm 0.00 in0.0 mm
11:15 PM 36.5°F2.5°C 31.5°F-0.3°C 82% 1.0 mph SW1.6 kmh SW 7.0 mph11.3 kmh 29.55 in1000.7 mb 0.00 in0.0 mm 0.00 in0.0 mm 0.00 in0.0 mm
11:20 PM 36.4°F2.4°C 31.4°F-0.3°C 82% 4.0 mph WSW6.4 kmh WSW 8.0 mph12.9 kmh 29.55 in1000.7 mb 0.00 in0.0 mm 0.00 in0.0 mm 0.00 in0.0 mm
11:25 PM 36.4°F2.4°C 31.7°F-0.2°C 83% 3.0 mph WSW4.8 kmh WSW 8.0 mph12.9 kmh 29.55 in1000.7 mb 0.00 in0.0 mm 0.00 in0.0 mm 0.00 in0.0 mm
11:30 PM 36.4°F2.4°C 31.7°F-0.2°C 83% 1.0 mph WSW1.6 kmh WSW 8.0 mph12.9 kmh 29.55 in1000.7 mb 0.00 in0.0 mm 0.00 in0.0 mm 0.00 in0.0 mm
11:35 PM 36.4°F2.4°C 31.7°F-0.2°C 83% 1.0 mph WSW1.6 kmh WSW 8.0 mph12.9 kmh 29.55 in1000.7 mb 0.00 in0.0 mm 0.00 in0.0 mm 0.00 in0.0 mm
11:40 PM 36.4°F2.4°C 31.7°F-0.2°C 83% 2.0 mph SW3.2 kmh SW 6.0 mph9.7 kmh 29.55 in1000.7 mb 0.00 in0.0 mm 0.00 in0.0 mm 0.00 in0.0 mm
11:45 PM 36.4°F2.4°C 31.7°F-0.2°C 83% 3.0 mph SW4.8 kmh SW 6.0 mph9.7 kmh 29.56 in1001.0 mb 0.00 in0.0 mm 0.00 in0.0 mm 0.00 in0.0 mm
11:50 PM 36.4°F2.4°C 31.7°F-0.2°C 83% 3.0 mph SW4.8 kmh SW 6.0 mph9.7 kmh 29.56 in1001.0 mb 0.00 in0.0 mm 0.00 in0.0 mm 0.00 in0.0 mm
11:55 PM 36.4°F2.4°C 31.7°F-0.2°C 83% 2.0 mph SW3.2 kmh SW 6.0 mph9.7 kmh 29.56 in1001.0 mb 0.00 in0.0 mm 0.00 in0.0 mm 0.00 in0.0 mm